Randolph, MA

5:34 AM EST on January 25, 2015 (GMT -0500)
North Randolph | Change Station
CLOSE
Current Station
Personal Weather Station
Location: Randolph, MA
Elevation: 225 ft
Nearby Weather Stations
Active Advisory: Blizzard Watch, Special Statement Active Notice: Local Storm Report

Elev 225 ft 42.20 °N, 71.06 °W | Updated 4 minutes ago

Mostly Cloudy
Mostly Cloudy
29.6 °F
Feels Like 25 °F
N
4.0
Wind Variable Wind from West
Gusts 8.0 mph

Today
High -- | Low -- °F
--% Chance of Precip.
Yesterday
High -- | Low -- °F
Precip. -- in
7:04 AM 4:49 PM
Waxing Crescent, 31% visible
Pressure 29.45 in
Visibility 10.0 miles
Clouds Mostly Cloudy 9000 ft
Windchill 25 °F
Dew Point 27 °F
Humidity 91%
Rainfall 0.00 in
Snow Depth Not available.
UV 0.0 out of 12
Pollen .10 out of 12
Air Quality Not available.
Flu Activity Not available.
METAR KOWD 250953Z AUTO 26010KT 10SM BKN090 M01/M03 A2945 RMK AO2 SLP971 T10061028

More Conditions Fewer Conditions

Pressure 29.45 in
Visibility 10.0 miles
Clouds Mostly Cloudy 9000 ft
Windchill 25 °F
Dew Point 27 °F
Humidity 91%
Rainfall 0.00 in
Snow Depth Not available.
UV 0.0 out of 12
Pollen .10 out of 12
Air Quality Not available.
Flu Activity Not available.
METAR KOWD 250953Z AUTO 26010KT 10SM BKN090 M01/M03 A2945 RMK AO2 SLP971 T10061028

More Conditions Fewer Conditions

10-Day Weather Forecast

Almanac

Astronomy

Jan. 25, 2015 Rise Set
Actual Time
Civil Twilight
Nautical Twilight
Astronomical Twilight
Moon
Length of Visible Light
Length of Day
Tomorrow will be .
, % of the Moon is Illuminated

Today's Extremes

State Highs State Lows

Community

WunderPhotos

Upload Photos

1,789,861 photos uploaded!

WunderBlogs® & News

Nearby

Air Quality

  Air Quality AQ Index Pollutant
Not available.

Snow Depth

Station Depth Elevation

Earthquake Activity

City Distance Mag. Time & Date
Minimum magnitude displayed is 2.5.

Coastal Water Temperatures

Place Temperature

Nearby Weather Stations